Terminal Aerodrome Forecast
Issued by NWS Jackson, MS

Home | Current Version | Previous Version | Text Only | Print | Product List | Glossary On
Versions: 1 2 3 4 5 6 7 8 9 10 11 12 13
450
FTUS44 KJAN 281146
TAFMEI
TAF
KMEI 281146Z 2812/2912 20003KT 5SM BR BKN015
     FM281900 21006KT P6SM VCTS BKN050CB
     FM290000 16004KT P6SM SCT050 SCT250
     FM290800 18003KT 5SM BR BKN007=

USA.gov is the U.S. government's official web portal to all federal, state and local government web resources and services.